Time;durP1;ratioP1;P1;durP2;ratioP2;P2;SDS_P1;SDS_P2;PMS_P1;PMS_P2;Temp;Humidity;BMP_temperature;BMP_pressure;BME280_temperature;BME280_humidity;BME280_pressure;Samples;Min_cycle;Max_cycle;Signal;HPM_P1;HPM_P2
2023/12/08 00:01:53;;;;;;;35.80;19.23;;;-2.00;98.30;;;-2.74;100.00;97672.53;5081840;28;20557;-72
2023/12/08 00:04:21;;;;;;;32.70;19.10;;;-1.90;98.90;;;-2.71;100.00;97661.66;5081439;28;20459;-72
2023/12/08 00:06:49;;;;;;;27.60;16.70;;;-1.90;98.90;;;-2.67;100.00;97652.47;5077870;28;20471;-72
2023/12/08 00:09:18;;;;;;;31.67;18.53;;;-1.90;98.90;;;-2.71;100.00;97656.38;5086833;28;20566;-72
2023/12/08 00:11:45;;;;;;;29.67;17.80;;;-1.90;98.30;;;-2.90;100.00;97615.75;5078288;28;20447;-72
2023/12/08 00:14:13;;;;;;;33.30;19.63;;;-1.80;98.10;;;-2.71;100.00;97627.28;5083606;28;20440;-72
2023/12/08 00:16:41;;;;;;;34.27;19.27;;;-1.80;97.60;;;-2.80;100.00;97612.28;5085037;28;20449;-72
2023/12/08 00:19:08;;;;;;;33.33;18.30;;;-1.80;97.20;;;-2.80;100.00;97634.25;5081215;28;20444;-73
2023/12/08 00:21:36;;;;;;;31.60;17.70;;;-1.80;96.30;;;-2.83;100.00;97649.56;5098476;28;21094;-73
2023/12/08 00:24:06;;;;;;;31.83;17.50;;;-1.90;96.10;;;-2.69;100.00;97648.31;5099272;28;20451;-71
2023/12/08 00:26:33;;;;;;;31.10;18.00;;;-1.90;97.20;;;-2.53;100.00;97648.56;5091070;28;20474;-72
2023/12/08 00:29:04;;;;;;;29.37;17.20;;;-1.70;97.90;;;-2.43;100.00;97649.41;5086325;28;21262;-74
2023/12/08 00:31:31;;;;;;;30.17;17.57;;;-1.60;97.80;;;-2.47;100.00;97649.81;5089585;28;20450;-71
2023/12/08 00:33:59;;;;;;;28.10;16.90;;;-1.60;96.80;;;-2.43;100.00;97637.97;5082835;28;20456;-72
2023/12/08 00:36:26;;;;;;;28.00;17.73;;;-1.60;97.10;;;-2.25;100.00;97624.00;5080047;28;20443;-71
2023/12/08 00:38:54;;;;;;;28.63;18.30;;;-1.50;97.20;;;-2.32;100.00;97619.28;5079645;28;20451;-71
2023/12/08 00:41:25;;;;;;;31.10;18.30;;;-1.40;96.70;;;-2.11;100.00;97615.59;5076377;28;21415;-71
2023/12/08 00:43:53;;;;;;;31.50;18.00;;;-1.30;96.90;;;-2.14;100.00;97621.19;5087226;28;20580;-70
2023/12/08 00:46:20;;;;;;;28.40;18.37;;;-1.30;96.50;;;-2.05;100.00;97607.06;5087343;28;21375;-71
2023/12/08 00:48:48;;;;;;;34.07;18.53;;;-1.20;97.00;;;-1.97;99.71;97600.22;5087808;28;20531;-71
2023/12/08 00:51:15;;;;;;;32.63;16.50;;;-1.10;96.70;;;-1.92;99.22;97597.97;5106123;28;21034;-71
2023/12/08 00:53:43;;;;;;;30.47;18.30;;;-1.10;96.00;;;-1.98;99.50;97607.31;5084795;28;20852;-71
2023/12/08 00:56:11;;;;;;;27.63;17.13;;;-1.10;95.70;;;-1.97;99.60;97600.22;5086006;28;20456;-72
2023/12/08 00:58:40;;;;;;;30.10;18.30;;;-1.10;95.20;;;-1.79;98.99;97595.81;5085356;28;20517;-71
2023/12/08 01:01:09;;;;;;;25.07;16.57;;;-1.00;95.90;;;-1.87;98.28;97596.53;5087771;28;20456;-71
2023/12/08 01:03:36;;;;;;;26.87;16.47;;;-0.90;95.20;;;-1.86;98.59;97598.22;5083862;28;20452;-72
2023/12/08 01:06:04;;;;;;;25.00;16.80;;;-0.90;94.70;;;-1.76;98.13;97597.34;5080565;28;20478;-72
2023/12/08 01:08:31;;;;;;;31.53;16.90;;;-0.90;94.60;;;-1.87;97.71;97596.53;5087450;28;20465;-72
2023/12/08 01:10:58;;;;;;;29.65;16.65;;;-1.00;94.10;;;-1.76;97.87;97587.56;5066208;28;20448;-69
2023/12/08 01:13:26;;;;;;;23.33;15.70;;;-0.90;94.20;;;-1.71;97.96;97579.19;5075490;28;20201;-72
2023/12/08 01:15:55;;;;;;;24.33;17.10;;;-0.80;94.20;;;-1.72;97.37;97573.06;5090179;28;20448;-71
2023/12/08 01:18:23;;;;;;;27.57;17.20;;;-0.80;92.90;;;-1.62;97.86;97586.25;5081361;28;20955;-71
2023/12/08 01:20:51;;;;;;;27.30;15.47;;;-0.80;92.90;;;-1.60;97.37;97571.03;5088887;28;20497;-73
2023/12/08 01:23:18;;;;;;;28.00;16.40;;;-0.70;93.30;;;-1.74;96.70;97548.53;5086588;28;20454;-72
2023/12/08 01:25:46;;;;;;;25.83;14.90;;;-0.70;92.80;;;-1.58;95.92;97573.53;5085323;28;20565;-70
2023/12/08 01:28:14;;;;;;;25.83;15.80;;;-0.70;92.40;;;-1.56;96.07;97582.16;5081827;28;20527;-70
2023/12/08 01:30:42;;;;;;;22.57;14.30;;;-0.70;92.20;;;-1.67;95.69;97548.75;5085573;28;20498;-71
2023/12/08 01:33:11;;;;;;;29.10;16.07;;;-0.70;92.10;;;-1.54;96.00;97569.59;5084570;28;20457;-71
2023/12/08 01:35:38;;;;;;;22.43;13.80;;;-0.70;92.00;;;-1.59;95.48;97561.28;5082636;28;20463;-71
2023/12/08 01:38:06;;;;;;;21.40;14.43;;;-0.70;92.10;;;-1.63;95.67;97581.09;5085196;28;21045;-72
2023/12/08 01:40:34;;;;;;;19.40;13.27;;;-0.70;91.80;;;-1.59;96.02;97580.66;5077713;28;20449;-72
2023/12/08 01:43:01;;;;;;;22.23;13.90;;;-0.70;92.10;;;-1.61;95.79;97574.66;5084159;28;20534;-72
2023/12/08 01:45:29;;;;;;;20.00;14.30;;;-0.70;91.80;;;-1.64;95.51;97566.16;5086737;28;20553;-74
2023/12/08 01:47:56;;;;;;;22.30;14.67;;;-0.70;91.60;;;-1.63;95.00;97570.47;5079351;28;20819;-72
2023/12/08 01:50:25;;;;;;;20.90;13.40;;;-0.70;91.20;;;-1.56;94.58;97563.63;5093278;28;20811;-72
2023/12/08 01:52:53;;;;;;;23.83;14.67;;;-0.70;91.00;;;-1.64;94.52;97568.81;5082122;28;21544;-73
2023/12/08 01:55:21;;;;;;;24.07;14.90;;;-0.70;91.00;;;-2.23;94.22;97468.53;5093592;28;20451;-73
2023/12/08 01:57:49;;;;;;;20.10;12.90;;;-0.70;91.00;;;-1.66;94.59;97558.38;5081662;28;20452;-74
2023/12/08 02:00:17;;;;;;;18.87;13.17;;;-0.70;90.70;;;-1.67;94.30;97551.41;5081774;28;20447;-73
2023/12/08 02:02:44;;;;;;;20.50;14.23;;;-0.80;90.60;;;-1.81;94.22;97525.44;5087273;28;21145;-72
2023/12/08 02:05:13;;;;;;;20.37;13.23;;;-0.80;90.70;;;-1.63;94.17;97539.53;5064729;28;20539;-70
2023/12/08 02:07:41;;;;;;;21.40;13.30;;;-0.70;90.40;;;-1.65;94.32;97548.59;5093523;28;20481;-72
2023/12/08 02:10:10;;;;;;;23.40;13.53;;;-0.70;90.10;;;-1.65;93.92;97538.88;5086393;28;20468;-73
2023/12/08 02:12:37;;;;;;;22.40;13.17;;;-0.70;90.20;;;-1.61;94.14;97542.03;5082921;28;20476;-74
2023/12/08 02:15:06;;;;;;;21.37;12.50;;;-0.70;90.30;;;-2.12;93.58;97470.97;5083931;28;20462;-74
2023/12/08 02:17:38;;;;;;;17.80;12.57;;;-0.70;90.10;;;-1.81;94.15;97520.16;5086745;28;20447;-72
2023/12/08 02:20:09;;;;;;;18.63;12.90;;;-0.70;90.30;;;-1.52;93.67;97540.28;5100020;27;20451;-73
2023/12/08 02:22:36;;;;;;;21.07;12.80;;;-0.60;90.60;;;-1.44;92.02;97551.84;5095221;28;20826;-73
2023/12/08 02:25:06;;;;;;;19.17;12.53;;;-0.50;89.50;;;-1.53;92.37;97542.13;5084458;28;20543;-72
2023/12/08 02:27:34;;;;;;;19.30;12.60;;;-0.50;88.30;;;-1.44;92.87;97506.78;5082174;28;20525;-73
2023/12/08 02:30:02;;;;;;;16.90;11.20;;;-0.50;88.80;;;-1.32;92.21;97527.72;5076218;28;20458;-74
2023/12/08 02:32:36;;;;;;;17.13;10.27;;;-0.40;88.50;;;-1.28;91.17;97537.06;5083392;28;20961;-71
2023/12/08 02:35:08;;;;;;;15.73;10.50;;;-0.40;87.20;;;-1.28;90.62;97542.38;5084049;28;20559;-72
2023/12/08 02:37:38;;;;;;;18.83;10.83;;;-0.40;86.40;;;-1.37;90.75;97524.72;5076988;28;20440;-72
2023/12/08 02:40:09;;;;;;;17.90;10.70;;;-0.40;86.60;;;-1.19;90.82;97541.44;5082157;28;20522;-73
2023/12/08 02:42:37;;;;;;;16.37;11.00;;;-0.40;87.50;;;-1.23;90.35;97534.78;5078789;28;20950;-73
2023/12/08 02:45:05;;;;;;;14.37;10.23;;;-0.40;87.00;;;-1.33;90.21;97524.25;5094049;27;20449;-73
2023/12/08 02:47:32;;;;;;;14.93;9.80;;;-0.40;85.60;;;-1.34;89.76;97517.28;5077274;28;20471;-74
2023/12/08 02:50:00;;;;;;;16.03;10.80;;;-0.30;84.60;;;-1.33;90.43;97505.72;5081474;28;20542;-74
2023/12/08 02:52:27;;;;;;;17.23;11.80;;;-0.40;85.10;;;-1.33;89.61;97502.22;5099416;27;20440;-72
2023/12/08 02:54:55;;;;;;;16.57;11.03;;;-0.40;84.60;;;-1.21;89.57;97506.28;5078676;28;20493;-73
2023/12/08 02:57:24;;;;;;;14.50;10.40;;;-0.30;84.90;;;-1.11;89.76;97516.00;5084317;28;20553;-73
2023/12/08 02:59:51;;;;;;;14.17;10.27;;;-0.30;85.00;;;-1.07;88.73;97506.75;5091000;28;20451;-73
2023/12/08 03:02:18;;;;;;;14.53;10.53;;;-0.30;85.20;;;-1.26;88.45;97505.94;5092212;28;20448;-72
2023/12/08 03:04:46;;;;;;;14.33;10.10;;;-0.30;84.10;;;-1.09;88.66;97511.38;5082922;28;20479;-73
2023/12/08 03:07:13;;;;;;;15.80;11.20;;;-0.30;83.90;;;-1.12;88.15;97482.50;5075942;28;20464;-73
2023/12/08 03:09:40;;;;;;;15.80;10.30;;;-0.20;83.80;;;-1.24;88.18;97480.09;5100891;28;20529;-73
2023/12/08 03:12:08;;;;;;;17.03;10.83;;;-0.20;83.20;;;-1.26;88.01;97460.88;5084643;28;20452;-72
2023/12/08 03:14:36;;;;;;;17.17;11.40;;;-0.20;83.00;;;-1.29;87.20;97450.53;5083851;28;20933;-73
2023/12/08 03:17:04;;;;;;;16.97;10.70;;;-0.20;82.40;;;-1.22;87.96;97451.59;5085283;28;20456;-72
2023/12/08 03:19:31;;;;;;;16.10;12.20;;;-0.20;82.40;;;-1.21;87.42;97455.91;5087707;28;20461;-71
2023/12/08 03:21:59;;;;;;;17.40;11.77;;;-0.20;82.20;;;-1.09;86.67;97466.28;5084186;28;20540;-71
2023/12/08 03:24:27;;;;;;;15.17;11.47;;;-0.20;82.40;;;-1.03;86.44;97458.53;5092172;27;20448;-72
2023/12/08 03:26:54;;;;;;;17.50;10.60;;;-0.10;82.30;;;-1.11;85.79;97476.22;5085176;28;20458;-71
2023/12/08 03:29:22;;;;;;;18.87;11.57;;;-0.10;81.50;;;-1.05;85.37;97475.59;5084062;28;21019;-72
2023/12/08 03:31:50;;;;;;;17.40;10.80;;;-0.10;81.40;;;-1.12;86.15;97472.72;5086880;28;20447;-72
2023/12/08 03:34:18;;;;;;;17.30;11.37;;;-0.10;81.40;;;-1.06;86.11;97485.38;5090025;28;20884;-70
2023/12/08 03:36:45;;;;;;;16.00;11.07;;;-0.10;81.40;;;-1.43;85.63;97449.28;5082147;28;20955;-72
2023/12/08 03:39:13;;;;;;;17.03;11.67;;;-0.10;81.00;;;-1.19;85.63;97466.38;5083030;28;20477;-72
2023/12/08 03:41:40;;;;;;;16.53;10.67;;;-0.10;80.70;;;-1.24;86.72;97453.59;5088182;28;20529;-73
2023/12/08 03:44:08;;;;;;;17.10;12.03;;;-0.10;81.30;;;-1.20;86.25;97454.13;5084283;28;20455;-72
2023/12/08 03:46:36;;;;;;;15.43;10.33;;;-0.10;81.10;;;-1.07;86.07;97459.00;5076240;28;20456;-74
2023/12/08 03:49:05;;;;;;;17.20;11.57;;;-0.10;81.30;;;-1.02;85.77;97451.41;5079074;28;20478;-73
2023/12/08 03:51:32;;;;;;;18.63;11.77;;;-0.10;81.10;;;-1.03;85.80;97439.13;5084107;28;20461;-73
2023/12/08 03:54:00;;;;;;;17.77;11.30;;;-0.10;81.30;;;-0.99;85.63;97445.78;5081023;28;20452;-74
2023/12/08 03:56:27;;;;;;;16.93;10.60;;;-0.10;81.20;;;-1.07;85.10;97435.94;5071938;28;20474;-72
2023/12/08 03:58:55;;;;;;;16.80;11.27;;;-0.10;80.70;;;-1.07;85.35;97443.09;5083047;28;20864;-73
2023/12/08 04:01:22;;;;;;;14.80;10.07;;;-0.10;80.50;;;-1.14;85.32;97429.63;5080505;28;21019;-73
2023/12/08 04:03:50;;;;;;;15.33;11.07;;;-0.10;80.30;;;-1.06;85.57;97429.69;5086518;28;20455;-71
2023/12/08 04:06:19;;;;;;;16.85;11.20;;;-0.10;80.50;;;-1.22;86.01;97418.94;5077351;28;20523;-73
2023/12/08 04:08:47;;;;;;;16.00;11.27;;;-0.10;80.80;;;-1.24;85.71;97403.22;5082777;28;20219;-71
2023/12/08 04:11:14;;;;;;;14.60;10.13;;;-0.10;80.30;;;-1.14;85.17;97411.06;5079266;28;20444;-72
2023/12/08 04:13:41;;;;;;;16.27;11.30;;;-0.10;80.20;;;-1.00;84.92;97412.28;5085903;28;20932;-73
2023/12/08 04:16:10;;;;;;;16.60;10.23;;;-0.10;80.40;;;-1.10;84.97;97406.28;5080083;28;20547;-73
2023/12/08 04:18:37;;;;;;;18.50;12.23;;;-0.10;80.30;;;-1.10;85.01;97396.50;5085530;28;20462;-73
2023/12/08 04:21:04;;;;;;;17.40;11.93;;;-0.10;80.10;;;-1.16;85.78;97370.63;5083347;28;20526;-73
2023/12/08 04:23:34;;;;;;;14.17;10.07;;;-0.10;80.60;;;-1.12;85.55;97397.66;5082142;28;20548;-72
2023/12/08 04:26:02;;;;;;;18.45;11.57;;;-0.10;80.60;;;-1.02;85.34;97374.50;5078960;28;20456;-71
2023/12/08 04:28:30;;;;;;;17.60;12.83;;;-0.10;80.40;;;-0.94;85.21;97390.47;5074697;28;20217;-71
2023/12/08 04:30:57;;;;;;;16.97;11.10;;;0.00;80.40;;;-0.94;84.44;97395.78;5078884;28;20951;-70
2023/12/08 04:33:25;;;;;;;17.27;11.50;;;0.00;80.20;;;-0.99;84.49;97384.78;5079217;28;20540;-71
2023/12/08 04:35:52;;;;;;;16.20;11.83;;;0.00;80.00;;;-1.01;83.97;97395.56;5083584;28;20526;-69
2023/12/08 04:38:20;;;;;;;16.37;11.43;;;0.00;79.50;;;-0.97;84.04;97416.47;5085916;28;20551;-72
2023/12/08 04:40:48;;;;;;;17.20;10.83;;;0.00;79.60;;;-0.83;84.16;97470.75;5087939;28;20447;-71
2023/12/08 04:43:16;;;;;;;18.87;12.67;;;0.10;80.30;;;-0.81;84.11;97487.38;5080093;28;20452;-71
2023/12/08 04:45:43;;;;;;;16.73;11.43;;;0.10;79.80;;;-0.86;84.00;97459.47;5088349;28;20454;-72
2023/12/08 04:48:10;;;;;;;18.50;13.00;;;0.10;79.60;;;-0.76;82.83;97485.06;5089721;28;20467;-72
2023/12/08 04:50:38;;;;;;;15.70;11.60;;;0.20;79.40;;;-0.86;83.77;97478.03;5087508;28;20554;-73
2023/12/08 04:53:06;;;;;;;17.27;12.17;;;0.20;79.50;;;-0.70;83.01;97475.66;5085417;28;20472;-70
2023/12/08 04:55:33;;;;;;;19.60;12.60;;;0.20;79.30;;;-0.71;83.33;97464.19;5083906;28;20444;-72
2023/12/08 04:58:02;;;;;;;13.87;10.03;;;0.20;79.30;;;-0.79;83.71;97456.19;5087316;28;20459;-72
2023/12/08 05:00:29;;;;;;;19.90;13.37;;;0.20;79.60;;;-0.94;83.76;97427.59;5086870;28;20452;-73
2023/12/08 05:02:57;;;;;;;17.70;12.07;;;0.10;79.30;;;-0.98;84.67;97433.38;5086794;28;20795;-74
2023/12/08 05:05:26;;;;;;;14.60;9.37;;;0.10;79.70;;;-1.11;85.04;97431.97;5083919;28;20455;-72
2023/12/08 05:07:53;;;;;;;17.57;11.03;;;0.10;79.60;;;-1.10;85.30;97412.41;5080764;28;20837;-72
2023/12/08 05:10:21;;;;;;;17.70;10.70;;;0.00;79.80;;;-1.04;85.40;97384.44;5083784;28;20929;-71
2023/12/08 05:12:48;;;;;;;17.70;10.70;;;0.10;80.00;;;-0.98;84.86;97402.38;5084183;28;21122;-70
2023/12/08 05:15:19;;;;;;;18.20;12.83;;;0.00;79.90;;;-0.87;84.48;97418.00;5083650;28;20444;-72
2023/12/08 05:17:47;;;;;;;20.23;10.87;;;0.10;79.80;;;-0.96;84.69;97412.81;5083578;28;20475;-74
2023/12/08 05:20:14;;;;;;;19.27;13.30;;;0.10;79.70;;;-0.92;84.08;97409.69;5083910;28;20501;-72
2023/12/08 05:22:41;;;;;;;20.47;12.27;;;0.20;79.40;;;-0.80;84.22;97441.28;5080465;28;20456;-71
2023/12/08 05:25:10;;;;;;;18.77;12.20;;;0.10;79.50;;;-0.75;83.97;97438.97;5080561;28;20932;-71
2023/12/08 05:27:37;;;;;;;18.93;11.87;;;0.20;79.70;;;-0.82;83.86;97456.53;5083228;28;20884;-73
2023/12/08 05:30:05;;;;;;;19.53;11.87;;;0.20;79.70;;;-0.84;84.87;97438.09;5084155;28;20443;-72
2023/12/08 05:32:35;;;;;;;18.13;12.30;;;0.20;80.00;;;-0.91;84.85;97445.84;5081924;28;21008;-72
2023/12/08 05:35:02;;;;;;;21.17;12.57;;;0.20;79.60;;;-0.82;84.09;97446.72;5084854;28;20574;-72
2023/12/08 05:37:29;;;;;;;19.30;12.03;;;0.20;79.60;;;-0.97;84.06;97438.53;5083291;28;20444;-73
2023/12/08 05:39:57;;;;;;;21.90;13.10;;;0.10;79.40;;;-0.74;84.62;97448.59;5084114;28;20456;-68
2023/12/08 05:42:24;;;;;;;20.73;12.73;;;0.20;80.00;;;-0.68;83.36;97463.91;5081668;28;20803;-68
2023/12/08 05:44:51;;;;;;;18.67;13.73;;;0.30;79.60;;;-0.94;83.61;97427.59;5086172;28;20455;-68
2023/12/08 05:47:18;;;;;;;21.60;13.77;;;0.30;79.40;;;-0.60;83.68;97455.97;5083073;28;20459;-68
2023/12/08 05:49:46;;;;;;;22.00;14.00;;;0.40;79.40;;;-0.68;83.71;97442.69;5081237;28;20560;-69
2023/12/08 05:52:14;;;;;;;20.30;12.90;;;0.40;79.20;;;-0.73;83.31;97413.09;5080218;28;20460;-68
2023/12/08 05:54:42;;;;;;;22.97;13.10;;;0.40;79.00;;;-1.19;83.01;97350.53;5081606;28;20464;-69
2023/12/08 05:57:09;;;;;;;21.87;14.77;;;0.50;79.00;;;-0.64;83.60;97448.47;5089826;28;20457;-69
2023/12/08 05:59:37;;;;;;;22.40;14.00;;;0.40;79.10;;;-0.77;82.42;97422.38;5084788;28;20540;-68
2023/12/08 06:02:04;;;;;;;27.70;12.80;;;0.40;78.80;;;-0.36;83.66;97457.09;5078817;28;20533;-69
2023/12/08 06:04:31;;;;;;;25.50;15.30;;;0.50;79.50;;;-1.00;82.01;97365.41;5089177;28;20512;-70
2023/12/08 06:07:00;;;;;;;20.53;12.97;;;0.50;78.90;;;-0.34;81.70;97433.84;5078568;28;20448;-69
2023/12/08 06:09:27;;;;;;;22.07;13.60;;;0.60;78.80;;;-0.40;82.35;97429.16;5077395;28;21491;-69
2023/12/08 06:11:55;;;;;;;18.70;13.20;;;0.60;78.90;;;-0.54;82.75;97427.13;5078876;28;20525;-70
2023/12/08 06:14:22;;;;;;;21.87;13.30;;;0.50;78.70;;;-0.44;82.48;97435.81;5084094;28;20941;-69
2023/12/08 06:16:49;;;;;;;20.77;14.30;;;0.50;78.70;;;-0.42;81.81;97431.16;5078054;28;20964;-69
2023/12/08 06:19:17;;;;;;;22.40;13.87;;;0.60;78.60;;;-0.34;81.55;97452.44;5082510;28;20540;-68
2023/12/08 06:21:44;;;;;;;23.40;14.90;;;0.60;78.50;;;-0.33;81.84;97453.25;5083917;28;20461;-68
2023/12/08 06:24:13;;;;;;;23.50;14.87;;;0.60;78.20;;;-0.26;82.94;97453.44;5079211;28;21001;-69
2023/12/08 06:29:25;;;;;;;22.63;14.40;;;1.10;84.20;;;-0.23;82.26;97455.78;5084059;27;20586;-70
2023/12/08 06:31:54;;;;;;;26.10;15.20;;;0.90;78.70;;;0.06;85.89;97452.72;5059698;28;20544;-70
2023/12/08 06:34:21;;;;;;;21.47;13.83;;;0.90;80.80;;;-0.58;82.07;97368.25;5060575;28;20453;-69
2023/12/08 06:36:48;;;;;;;25.63;14.20;;;1.00;80.30;;;0.12;82.28;97465.34;5054642;28;20470;-69
2023/12/08 06:39:17;;;;;;;22.93;14.23;;;1.00;79.50;;;0.23;83.68;97463.41;5075771;28;20442;-70
2023/12/08 06:41:44;;;;;;;19.87;13.30;;;1.10;79.40;;;-0.25;80.44;97445.34;5060544;28;21004;-69
2023/12/08 06:44:12;;;;;;;22.97;14.60;;;1.00;77.20;;;-0.21;80.42;97446.66;5075888;28;20513;-69
2023/12/08 06:46:41;;;;;;;28.10;15.40;;;0.80;77.20;;;-0.22;80.74;97462.78;5058112;28;20498;-78
2023/12/08 06:49:08;;;;;;;21.93;14.60;;;0.70;77.30;;;-0.23;80.49;97455.78;5060449;28;20487;-80
2023/12/08 06:51:37;;;;;;;21.37;13.60;;;0.70;77.50;;;-0.34;81.08;97459.56;5052112;28;20541;-76
2023/12/08 06:54:05;;;;;;;24.00;15.20;;;0.70;77.60;;;-0.46;81.72;97432.47;5059622;28;20459;-76
2023/12/08 06:56:32;;;;;;;22.00;13.57;;;0.60;77.80;;;-0.38;81.45;97432.53;5051049;28;20467;-74
2023/12/08 06:58:59;;;;;;;22.03;13.60;;;0.60;77.90;;;-0.31;80.90;97435.34;5058362;28;20470;-78
2023/12/08 07:01:26;;;;;;;22.20;13.80;;;0.70;77.80;;;-0.67;81.67;97419.59;5068492;28;21080;-75
2023/12/08 07:03:58;;;;;;;23.60;13.90;;;0.60;77.50;;;-0.43;81.92;97440.13;5057148;28;20485;-71
2023/12/08 07:06:25;;;;;;;25.70;13.97;;;0.50;77.90;;;-0.35;81.59;97448.13;5072017;28;20487;-72
2023/12/08 07:08:53;;;;;;;20.43;13.10;;;0.60;78.20;;;-0.44;81.21;97460.53;5076503;28;20466;-73
2023/12/08 07:11:20;;;;;;;20.50;13.93;;;0.60;77.70;;;-0.51;82.07;97448.06;5052761;28;20481;-73
2023/12/08 07:13:47;;;;;;;18.90;13.07;;;0.50;78.40;;;-0.50;80.98;97457.69;5058724;28;20481;-72
2023/12/08 07:16:16;;;;;;;23.53;13.10;;;0.50;77.70;;;-0.60;81.87;97453.31;5053074;28;20551;-72
2023/12/08 07:18:43;;;;;;;22.17;13.23;;;0.50;77.60;;;-0.43;82.34;97448.94;5055335;28;20828;-72
2023/12/08 07:21:11;;;;;;;17.17;11.40;;;0.50;78.10;;;-1.30;81.18;97333.09;5056265;28;20465;-69
2023/12/08 07:23:40;;;;;;;23.33;14.80;;;0.50;77.50;;;-0.53;81.07;97456.16;5055946;28;20452;-73
2023/12/08 07:26:07;;;;;;;22.43;14.07;;;0.50;77.60;;;-0.41;81.33;97454.06;5068533;28;20486;-71
2023/12/08 07:28:35;;;;;;;21.50;14.20;;;0.60;77.70;;;-0.46;81.07;97453.72;5056715;28;20943;-73
2023/12/08 07:31:02;;;;;;;23.10;14.10;;;0.60;77.60;;;-0.49;81.53;97451.38;5056528;28;20461;-71
2023/12/08 07:33:29;;;;;;;19.43;12.40;;;0.50;77.50;;;-0.51;81.92;97448.06;5054798;28;20446;-74
2023/12/08 07:35:57;;;;;;;20.90;13.17;;;0.50;77.60;;;-0.88;81.52;97396.97;5071518;28;20488;-73
2023/12/08 07:38:25;;;;;;;24.43;15.23;;;0.60;77.80;;;-0.47;81.40;97452.88;5058217;28;20522;-74
2023/12/08 07:40:53;;;;;;;19.10;10.77;;;0.60;77.50;;;-0.57;81.78;97458.28;5043412;28;20482;-75
2023/12/08 07:43:21;;;;;;;22.77;13.83;;;0.50;77.50;;;-0.41;81.22;97443.44;5046529;28;20473;-73
2023/12/08 07:45:48;;;;;;;25.60;14.80;;;0.50;77.60;;;-0.44;81.22;97443.75;5054353;28;20523;-73
2023/12/08 07:48:15;;;;;;;21.63;14.37;;;0.60;77.60;;;-0.21;80.57;97453.81;5039988;28;20462;-72
2023/12/08 07:50:43;;;;;;;20.60;13.60;;;0.70;77.60;;;-0.41;80.90;97448.75;5039191;28;21017;-72
2023/12/08 07:53:10;;;;;;;22.80;13.53;;;0.70;77.40;;;-0.26;79.85;97458.75;5042252;28;20576;-74
2023/12/08 07:55:40;;;;;;;19.73;13.10;;;0.70;77.20;;;-0.26;79.83;97466.72;5055614;28;20459;-72
2023/12/08 07:58:07;;;;;;;19.90;12.70;;;0.70;76.90;;;-0.22;79.63;97470.75;5040154;28;20533;-71
2023/12/08 08:00:34;;;;;;;20.50;11.83;;;0.80;77.00;;;-0.28;79.49;97474.88;5040437;28;20441;-72
2023/12/08 08:03:02;;;;;;;21.67;12.83;;;0.70;76.50;;;-0.26;79.27;97461.41;5039152;28;20461;-72
2023/12/08 08:05:29;;;;;;;18.40;12.57;;;0.80;77.00;;;-0.33;80.13;97466.53;5042167;28;20477;-74
2023/12/08 08:07:57;;;;;;;19.50;12.13;;;0.70;76.70;;;-0.37;78.87;97406.78;5039556;28;20759;-73
2023/12/08 08:10:24;;;;;;;20.03;12.67;;;0.80;76.70;;;-0.37;78.31;97412.94;5041618;28;20463;-73
2023/12/08 08:12:53;;;;;;;22.70;13.80;;;0.90;76.60;;;-0.05;78.35;97459.19;5039924;28;20579;-72
2023/12/08 08:15:21;;;;;;;21.70;13.37;;;0.90;76.20;;;0.03;78.38;97466.34;5039039;28;20461;-73
2023/12/08 08:17:48;;;;;;;21.00;13.13;;;1.00;76.40;;;0.04;78.08;97469.81;5042571;28;20454;-73
2023/12/08 08:20:16;;;;;;;20.57;13.37;;;1.00;76.20;;;0.22;77.82;97459.88;5060067;28;20459;-74
2023/12/08 08:22:44;;;;;;;19.87;13.07;;;1.10;76.10;;;0.22;78.00;97461.72;5044165;28;20915;-75
2023/12/08 08:25:11;;;;;;;25.07;13.60;;;1.10;76.10;;;-0.14;78.16;97407.03;5058305;28;20462;-74
2023/12/08 08:27:41;;;;;;;22.90;13.20;;;1.10;76.10;;;0.41;77.61;97468.59;5039435;28;20471;-77
2023/12/08 08:30:12;;;;;;;20.03;11.87;;;1.30;76.30;;;0.08;78.06;97479.16;5057306;28;20447;-76
2023/12/08 08:32:39;;;;;;;23.67;12.97;;;1.20;75.80;;;-0.01;78.18;97471.13;5041832;28;20954;-79
2023/12/08 08:35:07;;;;;;;20.63;12.90;;;1.00;75.70;;;-0.02;78.57;97474.78;5037758;28;20458;-71
2023/12/08 08:37:34;;;;;;;22.37;13.13;;;1.00;75.90;;;0.05;78.50;97468.81;5053671;28;21236;-80
2023/12/08 08:40:02;;;;;;;19.50;12.70;;;1.10;76.20;;;-0.02;79.38;97461.50;5039953;28;21872;-75
2023/12/08 08:42:30;;;;;;;19.07;12.60;;;1.00;76.40;;;-0.10;79.89;97461.47;5060093;28;20484;-78
2023/12/08 08:44:57;;;;;;;22.83;12.50;;;1.00;76.50;;;-0.02;80.20;97458.00;5049937;28;20546;-69
2023/12/08 08:47:26;;;;;;;22.03;13.00;;;1.00;76.80;;;0.25;79.82;97464.06;5070166;28;21969;-71
2023/12/08 08:49:54;;;;;;;23.20;12.43;;;1.10;77.10;;;0.37;79.48;97472.53;5057107;28;20493;-73
2023/12/08 08:52:21;;;;;;;19.43;12.00;;;1.20;77.70;;;0.41;79.36;97471.25;5041692;28;20459;-77
2023/12/08 08:54:49;;;;;;;22.90;12.43;;;1.30;77.30;;;-0.04;79.89;97460.00;5044458;28;20514;-79
2023/12/08 08:57:17;;;;;;;20.47;13.33;;;1.10;76.70;;;0.30;79.94;97437.00;5039916;28;20469;-80
2023/12/08 08:59:44;;;;;;;18.60;12.90;;;1.10;77.20;;;0.35;79.29;97450.63;5041277;28;20438;-79
2023/12/08 09:02:12;;;;;;;17.13;11.47;;;1.20;76.80;;;0.51;78.77;97458.59;5038614;28;20462;-75
2023/12/08 09:04:41;;;;;;;21.10;12.83;;;1.40;77.00;;;0.45;78.75;97461.09;5036283;28;20459;-78
2023/12/08 09:07:09;;;;;;;23.57;14.27;;;1.40;76.60;;;0.52;78.72;97449.63;5034587;28;20452;-76
2023/12/08 09:09:36;;;;;;;17.97;11.23;;;1.40;76.80;;;0.26;78.06;97444.47;5040109;28;20483;-80
2023/12/08 09:12:03;;;;;;;18.40;11.90;;;1.40;75.90;;;0.24;79.03;97435.81;5056147;28;20971;-81
2023/12/08 09:14:33;;;;;;;16.60;10.73;;;1.20;76.30;;;0.26;78.69;97445.31;5041593;28;20458;-80
2023/12/08 09:17:02;;;;;;;15.03;11.10;;;1.30;76.20;;;0.18;79.12;97445.28;5039876;28;20509;-81
2023/12/08 09:19:30;;;;;;;17.43;9.80;;;1.30;76.30;;;0.11;79.01;97446.94;5042022;28;20438;-83
2023/12/08 09:21:59;;;;;;;17.07;11.47;;;1.20;76.40;;;0.35;79.79;97447.97;5042048;28;20443;-77
2023/12/08 09:24:27;;;;;;;16.87;12.10;;;1.20;77.10;;;-0.19;79.27;97350.94;5039660;28;20552;-80
2023/12/08 09:26:55;;;;;;;20.10;13.20;;;1.30;76.60;;;0.21;78.80;97391.81;5040285;28;20808;-83
2023/12/08 09:29:22;;;;;;;16.30;11.50;;;1.50;76.60;;;0.39;79.30;97442.16;5041509;28;20478;-73
2023/12/08 09:31:50;;;;;;;15.63;11.40;;;1.40;76.70;;;0.42;79.98;97451.63;5061485;28;20483;-75
2023/12/08 09:34:17;;;;;;;16.77;11.03;;;1.40;77.00;;;0.53;78.65;97446.00;5059659;28;20857;-81
2023/12/08 09:36:45;;;;;;;17.03;11.70;;;1.50;76.70;;;0.15;80.55;97440.28;5041975;28;20447;-81
2023/12/08 09:39:14;;;;;;;18.57;11.50;;;1.30;76.70;;;0.50;80.45;97456.94;5043579;28;20549;-78
2023/12/08 09:41:42;;;;;;;18.93;12.00;;;1.40;77.30;;;0.54;79.29;97437.03;5051473;28;20505;-80
2023/12/08 09:44:12;;;;;;;18.70;12.50;;;1.50;76.90;;;0.65;79.01;97424.38;5052444;28;20541;-76
2023/12/08 09:46:44;;;;;;;19.20;12.37;;;1.50;76.80;;;1.03;77.82;97424.69;5040031;28;20469;-78
2023/12/08 09:49:21;;;;;;;17.60;11.47;;;1.80;76.80;;;0.81;77.58;97421.72;5045939;28;20808;-80
2023/12/08 09:51:50;;;;;;;18.57;11.80;;;1.80;76.50;;;0.67;77.72;97393.13;5041626;28;20544;-80
2023/12/08 09:54:19;;;;;;;22.63;11.97;;;1.80;75.90;;;0.80;77.25;97408.59;5063789;28;20461;-81
2023/12/08 09:56:48;;;;;;;18.60;12.20;;;1.80;75.70;;;0.68;77.54;97422.22;5047943;28;20451;-75
2023/12/08 09:59:17;;;;;;;16.70;12.50;;;1.80;75.80;;;0.67;78.18;97425.03;5060365;28;20441;-76
2023/12/08 10:01:45;;;;;;;16.40;11.70;;;1.70;76.00;;;0.98;77.71;97427.00;5044706;28;20944;-77
2023/12/08 10:04:12;;;;;;;17.70;12.40;;;1.90;76.40;;;0.26;78.26;97349.63;5061002;28;20815;-78
2023/12/08 10:06:40;;;;;;;17.67;12.10;;;1.70;76.10;;;0.89;78.36;97422.72;5039434;28;20462;-77
2023/12/08 10:09:08;;;;;;;19.20;13.03;;;1.80;76.80;;;1.09;77.46;97418.69;5058835;28;20492;-79
2023/12/08 10:11:38;;;;;;;18.63;12.60;;;2.00;76.40;;;1.18;76.40;97405.38;5040797;28;21321;-78
2023/12/08 10:14:07;;;;;;;19.97;12.23;;;2.10;76.00;;;0.61;76.79;97332.66;5041553;28;20471;-81
2023/12/08 10:16:34;;;;;;;22.07;13.27;;;2.00;75.90;;;1.09;77.00;97408.03;5043333;28;20506;-81